Time;durP1;ratioP1;P1;durP2;ratioP2;P2;SDS_P1;SDS_P2;PMS_P1;PMS_P2;Temp;Humidity;BMP_temperature;BMP_pressure;BME280_temperature;BME280_humidity;BME280_pressure;Samples;Min_cycle;Max_cycle;Signal;HPM_P1;HPM_P2
2021/10/05 00:02:15;;;;;;;7.25;4.47;;;19.70;96.70;;;;;;5095080;27;20040;-78
2021/10/05 00:04:43;;;;;;;4.82;4.13;;;19.70;96.70;;;;;;5092674;27;20351;-78
2021/10/05 00:07:11;;;;;;;5.47;4.60;;;19.70;96.70;;;;;;5097849;28;20067;-78
2021/10/05 00:09:39;;;;;;;4.80;4.30;;;19.70;96.70;;;;;;5093818;27;20044;-78
2021/10/05 00:12:08;;;;;;;5.05;4.22;;;19.70;96.70;;;;;;5113668;27;20130;-78
2021/10/05 00:14:38;;;;;;;13.18;5.72;;;19.70;96.70;;;;;;5107500;27;20637;-77
2021/10/05 00:17:06;;;;;;;5.55;4.50;;;19.60;96.70;;;;;;5090458;28;20032;-76
2021/10/05 00:19:34;;;;;;;4.82;4.00;;;19.60;96.70;;;;;;5090089;27;20053;-76
2021/10/05 00:22:02;;;;;;;5.20;4.32;;;19.60;96.70;;;;;;5094507;28;20624;-76
2021/10/05 00:24:30;;;;;;;7.65;4.68;;;19.50;96.70;;;;;;5099061;27;20050;-76
2021/10/05 00:26:58;;;;;;;5.32;4.25;;;19.60;96.70;;;;;;5116810;27;20092;-75
2021/10/05 00:29:26;;;;;;;6.60;4.57;;;19.60;96.70;;;;;;5108231;27;20579;-76
2021/10/05 00:31:56;;;;;;;8.30;4.85;;;19.60;96.70;;;;;;5095251;28;20523;-76
2021/10/05 00:34:24;;;;;;;7.20;4.47;;;19.60;96.70;;;;;;5112075;27;20163;-77
2021/10/05 00:36:56;;;;;;;6.47;4.65;;;19.60;96.70;;;;;;5119640;27;20135;-76
2021/10/05 00:39:26;;;;;;;5.95;4.15;;;19.50;96.70;;;;;;5095287;27;20036;-77
2021/10/05 00:41:54;;;;;;;7.07;4.45;;;19.50;96.70;;;;;;5098764;27;20039;-76
2021/10/05 00:44:31;;;;;;;6.55;4.72;;;19.60;96.70;;;;;;5111514;27;20035;-77
2021/10/05 00:47:08;;;;;;;7.13;4.30;;;19.60;96.70;;;;;;5078456;28;20052;-76
2021/10/05 00:49:37;;;;;;;5.38;4.63;;;19.50;96.70;;;;;;5109639;27;20050;-76
2021/10/05 00:52:07;;;;;;;8.45;4.53;;;19.50;96.70;;;;;;5089467;28;20085;-76
2021/10/05 00:54:37;;;;;;;5.50;4.45;;;19.50;96.70;;;;;;5107700;27;20559;-76
2021/10/05 00:57:07;;;;;;;8.88;4.53;;;19.50;96.70;;;;;;5094924;27;20051;-76
2021/10/05 00:59:36;;;;;;;6.15;4.43;;;19.60;96.70;;;;;;5075865;27;20604;-77
2021/10/05 01:02:10;;;;;;;8.02;4.53;;;19.60;96.70;;;;;;5090319;28;20084;-77
2021/10/05 01:04:39;;;;;;;6.00;4.63;;;19.50;96.70;;;;;;5107050;27;20048;-78
2021/10/05 01:07:09;;;;;;;6.13;4.28;;;19.50;96.70;;;;;;5085165;27;20047;-77
2021/10/05 01:09:37;;;;;;;5.35;4.75;;;19.50;96.70;;;;;;5114897;27;20031;-77
2021/10/05 01:12:07;;;;;;;11.23;4.65;;;19.40;96.70;;;;;;5078359;27;20050;-77
2021/10/05 01:14:35;;;;;;;6.32;4.72;;;19.30;96.70;;;;;;5092796;27;20047;-77
2021/10/05 01:17:07;;;;;;;4.95;4.13;;;19.30;96.70;;;;;;5093791;27;20035;-78
2021/10/05 01:19:36;;;;;;;6.85;4.57;;;19.30;96.70;;;;;;5082346;28;20446;-77
2021/10/05 01:22:09;;;;;;;5.70;4.60;;;19.30;96.70;;;;;;5090938;27;20063;-78
2021/10/05 01:24:37;;;;;;;7.30;5.10;;;19.30;96.70;;;;;;5082503;28;20055;-77
2021/10/05 01:27:06;;;;;;;7.57;5.35;;;19.20;96.70;;;;;;5089236;27;20089;-78
2021/10/05 01:29:34;;;;;;;7.30;5.15;;;19.00;96.70;;;;;;5080545;27;20143;-77
2021/10/05 01:32:04;;;;;;;6.97;5.43;;;18.90;96.70;;;;;;5107320;27;20445;-77
2021/10/05 01:34:32;;;;;;;7.47;5.78;;;18.90;96.70;;;;;;5116792;27;20065;-77
2021/10/05 01:37:01;;;;;;;9.50;5.22;;;18.70;96.70;;;;;;5095188;27;20063;-77
2021/10/05 01:39:33;;;;;;;9.65;4.55;;;18.70;96.70;;;;;;5088303;27;20043;-76
2021/10/05 01:42:03;;;;;;;7.55;4.28;;;18.60;96.70;;;;;;5088073;28;20469;-76
2021/10/05 01:44:33;;;;;;;4.78;2.95;;;18.60;96.70;;;;;;5107661;27;20051;-76
2021/10/05 01:47:03;;;;;;;5.65;3.08;;;18.50;96.70;;;;;;5107955;27;20039;-76
2021/10/05 01:49:31;;;;;;;5.93;4.28;;;18.40;96.70;;;;;;5078443;27;20292;-76
2021/10/05 01:51:59;;;;;;;7.70;4.53;;;18.40;96.70;;;;;;5113646;27;20031;-76
2021/10/05 01:54:28;;;;;;;5.47;4.95;;;18.30;96.70;;;;;;5075211;27;20055;-76
2021/10/05 01:56:58;;;;;;;5.57;4.68;;;18.30;96.70;;;;;;5112033;27;20047;-76
2021/10/05 01:59:26;;;;;;;7.35;4.80;;;18.30;96.70;;;;;;5086977;28;20180;-76
2021/10/05 02:01:55;;;;;;;6.25;4.95;;;18.30;96.70;;;;;;5107088;27;20043;-77
2021/10/05 02:04:23;;;;;;;7.10;5.20;;;18.20;96.70;;;;;;5076617;27;20041;-76
2021/10/05 02:06:51;;;;;;;6.40;5.35;;;18.20;96.70;;;;;;5076088;28;20043;-76
2021/10/05 02:09:20;;;;;;;7.97;5.30;;;18.20;96.70;;;;;;5088398;28;20088;-76
2021/10/05 02:11:48;;;;;;;6.50;5.47;;;18.30;96.70;;;;;;5109158;27;20507;-76
2021/10/05 02:14:18;;;;;;;7.85;4.60;;;18.30;96.70;;;;;;5112736;27;20031;-76
2021/10/05 02:16:46;;;;;;;6.38;5.20;;;18.40;96.70;;;;;;5087879;27;20039;-76
2021/10/05 02:19:14;;;;;;;5.97;5.38;;;18.40;96.70;;;;;;5075019;28;20358;-77
2021/10/05 02:21:42;;;;;;;6.07;4.57;;;18.50;96.70;;;;;;5108273;27;20596;-78
2021/10/05 02:26:49;;;;;;;5.15;4.65;;;18.50;96.70;;;;;;5091696;27;20078;-78
2021/10/05 02:29:19;;;;;;;5.75;4.50;;;18.50;96.70;;;;;;5076181;27;20095;-78
2021/10/05 02:31:48;;;;;;;5.97;5.00;;;18.40;96.70;;;;;;5085917;27;20137;-78
2021/10/05 02:34:16;;;;;;;6.68;4.55;;;18.50;96.70;;;;;;5089549;28;20488;-78
2021/10/05 02:36:45;;;;;;;5.22;4.03;;;18.40;96.70;;;;;;5091038;28;20039;-78
2021/10/05 02:39:13;;;;;;;8.48;4.47;;;18.50;96.70;;;;;;5080152;27;20042;-78
2021/10/05 02:41:41;;;;;;;3.83;2.65;;;18.50;96.70;;;;;;5088294;28;20058;-78
2021/10/05 02:44:09;;;;;;;6.50;2.78;;;18.50;96.70;;;;;;5093248;28;20039;-77
2021/10/05 02:46:39;;;;;;;3.22;2.05;;;18.60;96.70;;;;;;5107284;28;20051;-77
2021/10/05 02:49:07;;;;;;;4.57;1.95;;;18.60;96.70;;;;;;5087825;28;20040;-77
2021/10/05 02:51:35;;;;;;;3.45;2.33;;;18.60;96.70;;;;;;5104848;28;20035;-77
2021/10/05 02:54:03;;;;;;;4.53;2.17;;;18.70;96.70;;;;;;5106814;28;20075;-76
2021/10/05 02:56:31;;;;;;;3.83;2.22;;;18.70;96.70;;;;;;5091090;28;20103;-77
2021/10/05 02:59:00;;;;;;;7.63;2.83;;;18.60;96.70;;;;;;5093371;28;20035;-77
2021/10/05 03:01:28;;;;;;;4.55;2.90;;;18.60;96.70;;;;;;5093711;28;20043;-77
2021/10/05 03:03:58;;;;;;;3.47;2.60;;;18.50;96.70;;;;;;5093182;27;20035;-77
2021/10/05 03:06:26;;;;;;;3.22;2.92;;;18.50;96.70;;;;;;5114465;27;20047;-77
2021/10/05 03:08:55;;;;;;;4.32;2.50;;;18.50;96.70;;;;;;5117901;27;20039;-79
2021/10/05 03:11:23;;;;;;;4.60;3.05;;;18.40;96.70;;;;;;5091726;28;20047;-77
2021/10/05 03:13:51;;;;;;;5.97;3.10;;;18.40;96.70;;;;;;5099358;27;20419;-77
2021/10/05 03:16:19;;;;;;;5.32;3.10;;;18.40;96.70;;;;;;5098439;27;20051;-77
2021/10/05 03:18:47;;;;;;;4.03;2.53;;;18.40;96.70;;;;;;5079938;28;20043;-76
2021/10/05 03:21:19;;;;;;;4.57;2.85;;;18.40;96.70;;;;;;5090032;28;20550;-76
2021/10/05 03:23:47;;;;;;;3.67;2.72;;;18.40;96.70;;;;;;5114967;27;20500;-76
2021/10/05 03:26:16;;;;;;;4.60;3.25;;;18.50;96.70;;;;;;5095566;28;20043;-76
2021/10/05 03:28:44;;;;;;;5.80;3.33;;;18.50;96.70;;;;;;5096166;27;20048;-74
2021/10/05 03:31:12;;;;;;;3.97;2.80;;;18.40;96.70;;;;;;5090761;27;20041;-75
2021/10/05 03:33:42;;;;;;;5.43;2.97;;;18.50;96.70;;;;;;5093156;27;20044;-76
2021/10/05 03:36:13;;;;;;;5.05;3.05;;;18.50;96.70;;;;;;5095224;27;20134;-76
2021/10/05 03:38:43;;;;;;;4.97;3.65;;;18.60;96.70;;;;;;5114949;27;20039;-75
2021/10/05 03:41:12;;;;;;;3.83;2.80;;;18.60;96.70;;;;;;5108392;27;20482;-75
2021/10/05 03:43:40;;;;;;;5.00;3.00;;;18.60;96.70;;;;;;5091400;27;20085;-75
2021/10/05 03:46:08;;;;;;;6.82;3.00;;;18.50;96.70;;;;;;5111089;27;20147;-74
2021/10/05 03:48:36;;;;;;;4.82;2.65;;;18.60;96.70;;;;;;5085717;27;20830;-75
2021/10/05 03:51:04;;;;;;;7.03;2.55;;;18.60;96.70;;;;;;5108680;27;20290;-75
2021/10/05 03:53:33;;;;;;;8.75;2.80;;;18.50;96.70;;;;;;5091157;28;20055;-75
2021/10/05 03:56:03;;;;;;;8.45;2.58;;;18.50;96.70;;;;;;5088483;28;20513;-75
2021/10/05 03:58:31;;;;;;;8.02;2.50;;;18.50;96.70;;;;;;5089468;28;20043;-75
2021/10/05 04:01:03;;;;;;;8.30;2.83;;;18.60;96.70;;;;;;5088536;28;20310;-76
2021/10/05 04:03:32;;;;;;;9.88;2.78;;;18.60;96.70;;;;;;5093387;28;20630;-75
2021/10/05 04:06:00;;;;;;;6.47;2.67;;;18.70;96.70;;;;;;5090817;28;20059;-75
2021/10/05 04:08:28;;;;;;;7.97;2.10;;;18.70;96.70;;;;;;5088908;28;20050;-75
2021/10/05 04:10:57;;;;;;;7.57;2.38;;;18.70;96.70;;;;;;5083270;28;20040;-75
2021/10/05 04:13:26;;;;;;;8.50;2.42;;;18.70;96.70;;;;;;5086108;28;20432;-75
2021/10/05 04:15:54;;;;;;;7.50;1.90;;;18.70;96.70;;;;;;5089720;28;20047;-75
2021/10/05 04:18:22;;;;;;;11.73;2.45;;;18.70;96.70;;;;;;5072955;28;20055;-75
2021/10/05 04:20:51;;;;;;;7.90;2.22;;;18.80;96.70;;;;;;5091327;28;20054;-75
2021/10/05 04:23:19;;;;;;;9.50;2.25;;;18.80;96.70;;;;;;5099515;28;20043;-76
2021/10/05 04:25:47;;;;;;;6.63;1.80;;;18.80;96.70;;;;;;5094094;28;20052;-75
2021/10/05 04:28:15;;;;;;;7.10;1.95;;;18.80;96.70;;;;;;5090592;28;20052;-75
2021/10/05 04:30:44;;;;;;;16.75;2.58;;;18.80;96.70;;;;;;5076539;28;20039;-75
2021/10/05 04:33:13;;;;;;;8.30;2.15;;;18.80;96.70;;;;;;5092896;28;20044;-75
2021/10/05 04:35:41;;;;;;;6.45;2.15;;;18.80;96.70;;;;;;5093114;28;20060;-75
2021/10/05 04:38:09;;;;;;;10.20;2.13;;;18.90;96.70;;;;;;5089375;28;20110;-75
2021/10/05 04:40:37;;;;;;;12.20;2.33;;;18.90;96.70;;;;;;5089857;28;20131;-75
2021/10/05 04:43:05;;;;;;;8.77;1.80;;;18.90;96.70;;;;;;5094339;28;20044;-75
2021/10/05 04:45:34;;;;;;;11.55;2.45;;;18.90;96.70;;;;;;5094901;28;20048;-74
2021/10/05 04:48:08;;;;;;;13.35;2.03;;;18.90;96.70;;;;;;5075649;28;20881;-75
2021/10/05 04:50:38;;;;;;;10.02;2.28;;;18.90;96.70;;;;;;5075025;28;20133;-75
2021/10/05 04:53:06;;;;;;;13.55;2.85;;;18.90;96.70;;;;;;5084242;28;20071;-75
2021/10/05 04:55:37;;;;;;;14.00;2.05;;;18.90;96.70;;;;;;5118718;27;20059;-75
2021/10/05 04:58:05;;;;;;;9.40;1.80;;;18.90;96.70;;;;;;5111541;27;20061;-75
2021/10/05 05:00:33;;;;;;;13.10;2.45;;;18.80;96.70;;;;;;5096371;27;20039;-76
2021/10/05 05:03:01;;;;;;;9.90;1.95;;;18.80;96.70;;;;;;5105567;27;20993;-75
2021/10/05 05:05:32;;;;;;;8.40;1.63;;;18.80;96.70;;;;;;5100185;28;20036;-75
2021/10/05 05:08:04;;;;;;;7.82;1.55;;;18.90;96.70;;;;;;5077169;27;20040;-75
2021/10/05 05:10:33;;;;;;;9.57;2.08;;;18.90;96.70;;;;;;5089933;27;20147;-75
2021/10/05 05:13:01;;;;;;;9.90;2.15;;;19.00;96.70;;;;;;5095605;27;20077;-75
2021/10/05 05:15:30;;;;;;;10.05;1.63;;;18.90;96.70;;;;;;5110820;27;20035;-75
2021/10/05 05:17:58;;;;;;;7.72;1.98;;;18.90;96.70;;;;;;5109243;27;20043;-75
2021/10/05 05:20:26;;;;;;;6.50;2.20;;;18.90;96.70;;;;;;5080830;27;20067;-74
2021/10/05 05:22:56;;;;;;;9.15;2.13;;;18.90;96.70;;;;;;5109091;27;20035;-73
2021/10/05 05:25:25;;;;;;;11.57;1.92;;;19.00;96.70;;;;;;5097447;27;20039;-74
2021/10/05 05:27:53;;;;;;;13.23;3.17;;;19.00;96.70;;;;;;5089223;27;20047;-75
2021/10/05 05:30:21;;;;;;;8.13;2.22;;;19.00;96.70;;;;;;5112970;27;20329;-75
2021/10/05 05:32:49;;;;;;;11.13;2.17;;;19.00;96.70;;;;;;5080948;27;20643;-75
2021/10/05 05:35:19;;;;;;;8.80;1.77;;;19.00;96.70;;;;;;5108674;27;20039;-75
2021/10/05 05:37:58;;;;;;;8.50;1.95;;;19.00;96.70;;;;;;5095839;27;20031;-74
2021/10/05 05:40:27;;;;;;;11.57;1.98;;;19.10;96.70;;;;;;5087985;28;20512;-74
2021/10/05 05:42:55;;;;;;;14.57;2.55;;;19.10;96.70;;;;;;5076075;28;20136;-74
2021/10/05 05:45:25;;;;;;;7.68;1.40;;;19.10;96.70;;;;;;5109309;27;20103;-74
2021/10/05 05:47:54;;;;;;;9.27;1.77;;;19.10;96.70;;;;;;5094748;27;20575;-75
2021/10/05 05:50:22;;;;;;;8.80;1.92;;;19.10;96.70;;;;;;5091164;28;20567;-74
2021/10/05 05:52:51;;;;;;;7.82;1.80;;;19.10;96.70;;;;;;5087377;27;20469;-75
2021/10/05 05:55:21;;;;;;;8.68;2.03;;;19.00;96.70;;;;;;5105378;27;20134;-74
2021/10/05 05:57:51;;;;;;;7.85;1.80;;;19.00;96.70;;;;;;5112266;27;20035;-74
2021/10/05 06:00:19;;;;;;;9.32;2.13;;;18.90;96.70;;;;;;5100141;27;20130;-74
2021/10/05 06:02:48;;;;;;;6.70;1.75;;;18.80;96.70;;;;;;5108724;27;20791;-74
2021/10/05 06:05:16;;;;;;;11.88;2.05;;;18.90;96.70;;;;;;5108330;27;20065;-74
2021/10/05 06:07:44;;;;;;;10.88;1.80;;;19.00;96.70;;;;;;5083798;27;20677;-74
2021/10/05 06:10:13;;;;;;;6.93;1.40;;;19.00;96.70;;;;;;5092217;28;20039;-75
2021/10/05 06:12:43;;;;;;;9.40;1.70;;;19.00;96.70;;;;;;5088464;28;20493;-75
2021/10/05 06:15:13;;;;;;;8.93;2.20;;;19.10;96.70;;;;;;5088800;28;20467;-75
2021/10/05 06:17:43;;;;;;;8.90;2.40;;;19.10;96.70;;;;;;5089183;28;20067;-74
2021/10/05 06:20:14;;;;;;;12.63;3.00;;;19.10;96.70;;;;;;5107577;27;20119;-75
2021/10/05 06:22:43;;;;;;;10.45;2.40;;;19.10;96.70;;;;;;5099119;28;20047;-75
2021/10/05 06:25:13;;;;;;;12.27;3.15;;;19.10;96.70;;;;;;5075653;28;20404;-74
2021/10/05 06:27:43;;;;;;;13.18;3.35;;;19.10;96.70;;;;;;5093632;27;20052;-75
2021/10/05 06:30:13;;;;;;;13.48;3.58;;;19.20;96.70;;;;;;5090413;27;20138;-75
2021/10/05 06:32:44;;;;;;;9.93;2.35;;;19.20;96.70;;;;;;5112792;27;20031;-74
2021/10/05 06:35:13;;;;;;;11.80;2.40;;;19.20;96.70;;;;;;5110446;27;20043;-75
2021/10/05 06:37:41;;;;;;;8.95;2.33;;;19.20;96.70;;;;;;5106143;27;20084;-75
2021/10/05 06:40:10;;;;;;;7.95;2.25;;;19.20;96.70;;;;;;5105302;27;20472;-75
2021/10/05 06:42:38;;;;;;;10.55;3.03;;;19.20;96.70;;;;;;5091831;28;20130;-75
2021/10/05 06:45:09;;;;;;;8.75;2.67;;;19.20;96.70;;;;;;5108515;28;20501;-74
2021/10/05 06:47:38;;;;;;;8.13;2.10;;;19.30;96.70;;;;;;5109572;28;20043;-75
2021/10/05 06:50:08;;;;;;;11.55;2.08;;;19.30;96.70;;;;;;5087640;28;20046;-74
2021/10/05 06:52:36;;;;;;;9.20;1.67;;;19.40;96.70;;;;;;5114519;28;20062;-80
2021/10/05 06:55:05;;;;;;;8.13;1.58;;;19.40;96.70;;;;;;5100940;28;20606;-80
2021/10/05 06:57:37;;;;;;;11.13;2.30;;;19.50;96.70;;;;;;5088002;28;20439;-79
2021/10/05 07:00:17;;;;;;;7.00;1.95;;;19.50;96.70;;;;;;5076739;28;20114;-79
2021/10/05 07:02:46;;;;;;;12.23;2.53;;;19.60;96.70;;;;;;5090477;28;20043;-75
2021/10/05 07:05:17;;;;;;;11.43;2.70;;;19.60;96.70;;;;;;5090798;28;20134;-75
2021/10/05 07:07:47;;;;;;;9.05;2.33;;;19.70;96.70;;;;;;5073304;28;20124;-75
2021/10/05 07:10:17;;;;;;;9.43;2.40;;;19.70;96.70;;;;;;5075548;28;20059;-75
2021/10/05 07:12:45;;;;;;;9.05;2.30;;;19.70;96.70;;;;;;5091709;28;20054;-75
2021/10/05 07:15:16;;;;;;;8.73;2.45;;;19.80;96.70;;;;;;5108399;28;20036;-75
2021/10/05 07:17:44;;;;;;;9.60;2.33;;;19.90;96.70;;;;;;5112783;28;20042;-74
2021/10/05 07:20:26;;;;;;;10.23;3.08;;;20.00;96.70;;;;;;5092356;28;20045;-74
2021/10/05 07:22:54;;;;;;;15.27;3.20;;;20.10;96.70;;;;;;5077396;28;20039;-75
2021/10/05 07:25:23;;;;;;;10.75;2.67;;;20.20;96.70;;;;;;5088381;28;20044;-75
2021/10/05 07:27:52;;;;;;;8.90;2.35;;;20.30;96.70;;;;;;5106000;28;20087;-74
2021/10/05 07:30:25;;;;;;;9.82;2.15;;;20.30;96.70;;;;;;5093038;28;20044;-75
2021/10/05 07:32:55;;;;;;;7.93;2.03;;;20.20;96.70;;;;;;5105307;28;20048;-75
2021/10/05 07:35:24;;;;;;;9.05;2.13;;;20.20;96.70;;;;;;5093442;28;20060;-75
2021/10/05 07:37:55;;;;;;;7.80;2.30;;;20.20;96.70;;;;;;5103151;28;20046;-74
2021/10/05 07:40:24;;;;;;;6.15;2.65;;;20.20;96.70;;;;;;5104593;28;20401;-75
2021/10/05 07:42:53;;;;;;;11.85;2.70;;;20.10;96.70;;;;;;5094364;28;20524;-76
2021/10/05 07:45:25;;;;;;;7.20;2.33;;;20.20;96.70;;;;;;5079600;28;20077;-76
2021/10/05 07:47:53;;;;;;;11.23;2.17;;;20.20;96.70;;;;;;5107778;28;20028;-75
2021/10/05 07:50:23;;;;;;;16.13;2.70;;;20.20;96.70;;;;;;5077297;27;20053;-75
2021/10/05 07:52:57;;;;;;;15.43;2.65;;;20.20;96.70;;;;;;5075952;28;20469;-75
2021/10/05 07:55:26;;;;;;;9.30;2.38;;;20.30;96.70;;;;;;5075123;28;20400;-77
2021/10/05 07:57:54;;;;;;;11.18;2.38;;;20.20;96.70;;;;;;5093050;27;20051;-77
2021/10/05 08:00:23;;;;;;;10.10;2.33;;;20.20;96.70;;;;;;5115175;27;20515;-77
2021/10/05 08:02:52;;;;;;;8.55;2.10;;;20.20;96.70;;;;;;5096681;28;20059;-77
2021/10/05 08:05:21;;;;;;;10.05;2.28;;;20.20;96.70;;;;;;5094534;28;20130;-77
2021/10/05 08:07:56;;;;;;;9.50;2.25;;;20.20;96.70;;;;;;5091859;27;20040;-77
2021/10/05 08:10:25;;;;;;;10.27;1.80;;;20.30;96.70;;;;;;5083732;27;20096;-78
2021/10/05 08:12:53;;;;;;;12.73;2.58;;;20.40;96.70;;;;;;5101759;27;20063;-79
2021/10/05 08:15:23;;;;;;;7.20;1.85;;;20.60;96.70;;;;;;5091405;27;20044;-80
2021/10/05 08:17:53;;;;;;;6.93;1.85;;;20.60;96.70;;;;;;5095383;27;20484;-79
2021/10/05 08:20:21;;;;;;;7.75;2.00;;;20.70;96.70;;;;;;5109629;27;20074;-79
2021/10/05 08:22:49;;;;;;;17.17;2.28;;;20.80;96.70;;;;;;5095941;27;20131;-80
2021/10/05 08:25:18;;;;;;;10.15;1.85;;;20.70;96.70;;;;;;5084947;27;20085;-80
2021/10/05 08:27:47;;;;;;;10.15;2.03;;;20.60;96.70;;;;;;5103627;27;20043;-80
2021/10/05 08:30:16;;;;;;;7.57;1.40;;;20.60;96.70;;;;;;5092106;27;20114;-80
2021/10/05 08:32:46;;;;;;;5.93;1.27;;;20.60;96.70;;;;;;5095263;27;20040;-80
2021/10/05 08:35:20;;;;;;;6.55;2.03;;;20.70;96.70;;;;;;5093513;28;20051;-79
2021/10/05 08:37:49;;;;;;;10.50;2.53;;;20.70;96.70;;;;;;5094933;27;20438;-80
2021/10/05 08:40:19;;;;;;;8.07;1.80;;;20.70;96.70;;;;;;5092904;27;20070;-80
2021/10/05 08:42:47;;;;;;;8.00;1.65;;;20.70;96.70;;;;;;5095853;27;20041;-80
2021/10/05 08:45:18;;;;;;;7.25;1.63;;;20.80;96.70;;;;;;5100751;28;20389;-79
2021/10/05 08:47:50;;;;;;;6.45;1.77;;;20.90;96.70;;;;;;5095299;27;20469;-80
2021/10/05 08:50:20;;;;;;;8.48;1.90;;;20.90;96.70;;;;;;5082282;27;20051;-80
2021/10/05 08:52:49;;;;;;;17.10;3.08;;;21.00;96.70;;;;;;5111722;27;20582;-80
2021/10/05 08:55:17;;;;;;;14.00;2.15;;;21.10;96.70;;;;;;5092153;28;20136;-80
2021/10/05 08:57:48;;;;;;;12.07;3.22;;;21.20;96.70;;;;;;5103307;28;20599;-80
2021/10/05 09:00:17;;;;;;;10.98;3.17;;;21.20;96.70;;;;;;5098636;27;20492;-80
2021/10/05 09:02:51;;;;;;;11.73;2.67;;;21.40;96.70;;;;;;5092644;28;20039;-85
2021/10/05 09:05:25;;;;;;;11.85;2.30;;;21.50;96.70;;;;;;5113602;27;20044;-86
2021/10/05 09:07:58;;;;;;;9.60;2.28;;;21.60;96.70;;;;;;5109817;27;20126;-84
2021/10/05 09:10:33;;;;;;;13.50;2.38;;;21.70;96.70;;;;;;5105432;27;20044;-82
2021/10/05 09:13:01;;;;;;;12.32;2.22;;;21.70;96.70;;;;;;5076502;27;20438;-82
2021/10/05 09:15:32;;;;;;;16.23;3.28;;;21.70;96.70;;;;;;5094012;27;20043;-81
2021/10/05 09:18:03;;;;;;;27.65;5.13;;;21.70;96.70;;;;;;5110758;27;20116;-82
2021/10/05 09:20:35;;;;;;;10.88;2.20;;;21.80;96.70;;;;;;5092538;28;20144;-82
2021/10/05 09:23:05;;;;;;;12.57;2.65;;;21.90;96.70;;;;;;5099272;27;20489;-82
2021/10/05 09:25:36;;;;;;;7.43;1.92;;;21.70;96.70;;;;;;5091509;28;20122;-82
2021/10/05 09:28:16;;;;;;;13.07;2.10;;;21.70;96.70;;;;;;5112057;27;20039;-82
2021/10/05 09:30:56;;;;;;;8.40;1.80;;;21.70;96.70;;;;;;5100333;27;20057;-82
2021/10/05 09:33:26;;;;;;;10.88;2.78;;;21.90;96.70;;;;;;5107370;27;20542;-82
2021/10/05 09:35:54;;;;;;;9.02;2.60;;;21.90;96.70;;;;;;5091573;28;20055;-82
2021/10/05 09:38:25;;;;;;;9.63;2.20;;;21.90;96.70;;;;;;5091929;27;20039;-84
2021/10/05 09:40:59;;;;;;;13.25;2.90;;;22.00;96.70;;;;;;5118088;27;20036;-82
2021/10/05 09:43:28;;;;;;;9.27;1.90;;;21.90;96.70;;;;;;5095940;27;20086;-82
2021/10/05 09:46:10;;;;;;;11.73;2.95;;;21.90;96.70;;;;;;5092807;27;20146;-82
2021/10/05 09:48:41;;;;;;;7.10;2.05;;;21.80;96.70;;;;;;5101600;28;20051;-82
2021/10/05 09:51:22;;;;;;;9.30;2.47;;;21.80;96.70;;;;;;5116470;27;20043;-82
2021/10/05 09:53:51;;;;;;;9.52;2.00;;;21.80;96.70;;;;;;5109959;27;20047;-84
2021/10/05 09:56:21;;;;;;;14.38;3.30;;;21.80;96.70;;;;;;5114773;27;20496;-81
2021/10/05 09:58:50;;;;;;;9.50;1.73;;;21.80;96.70;;;;;;5114440;27;20039;-82
2021/10/05 10:01:19;;;;;;;8.70;2.05;;;21.80;96.70;;;;;;5097755;27;20125;-84
2021/10/05 10:03:51;;;;;;;10.82;2.20;;;21.90;96.70;;;;;;5097035;27;20047;-83
2021/10/05 10:06:20;;;;;;;8.43;2.13;;;21.90;96.70;;;;;;5095968;28;20069;-82
2021/10/05 10:08:50;;;;;;;9.68;2.30;;;21.90;96.70;;;;;;5080045;27;20050;-82
2021/10/05 10:11:18;;;;;;;7.28;1.85;;;21.90;96.70;;;;;;5082017;27;20647;-82
2021/10/05 10:13:49;;;;;;;6.43;1.90;;;21.90;96.70;;;;;;5101621;27;20047;-82
2021/10/05 10:16:18;;;;;;;9.73;1.90;;;21.90;96.70;;;;;;5082582;28;20040;-85
2021/10/05 10:18:53;;;;;;;11.68;2.72;;;21.90;96.70;;;;;;5092448;28;20096;-87
2021/10/05 10:21:27;;;;;;;11.10;2.42;;;22.00;96.70;;;;;;5107895;27;20047;-85
2021/10/05 10:24:10;;;;;;;7.80;2.22;;;22.00;96.70;;;;;;5095339;27;20050;-84
2021/10/05 10:26:43;;;;;;;10.63;1.88;;;22.00;96.70;;;;;;5091857;27;20506;-83
2021/10/05 10:29:32;;;;;;;5.53;1.40;;;21.90;96.70;;;;;;5094793;28;20069;-81
2021/10/05 10:32:13;;;;;;;10.82;1.98;;;21.90;96.70;;;;;;5090503;28;20126;-81
2021/10/05 10:34:46;;;;;;;8.88;2.20;;;22.00;96.70;;;;;;5091048;27;20147;-81
2021/10/05 10:37:17;;;;;;;6.95;1.70;;;22.40;96.70;;;;;;5112026;27;20481;-81
2021/10/05 10:39:47;;;;;;;9.93;1.95;;;22.70;96.70;;;;;;5079038;27;20158;-81
2021/10/05 10:42:27;;;;;;;12.07;2.00;;;23.00;96.70;;;;;;5099900;28;20059;-82
2021/10/05 10:44:56;;;;;;;6.15;0.90;;;23.00;96.70;;;;;;5090967;28;20092;-82
2021/10/05 10:47:27;;;;;;;7.22;1.48;;;22.90;96.70;;;;;;5091275;28;20047;-81
2021/10/05 10:50:01;;;;;;;4.32;0.70;;;22.80;96.70;;;;;;5075650;28;20039;-82
2021/10/05 10:52:31;;;;;;;7.88;1.25;;;22.70;96.70;;;;;;5096043;28;20054;-82
2021/10/05 10:55:01;;;;;;;5.97;0.98;;;22.70;96.70;;;;;;5106941;28;20101;-82
2021/10/05 10:57:35;;;;;;;6.38;1.08;;;22.60;96.70;;;;;;5097534;28;20054;-82
2021/10/05 11:00:25;;;;;;;5.47;0.82;;;22.60;96.70;;;;;;5091717;28;20116;-81
2021/10/05 11:02:55;;;;;;;4.97;0.90;;;22.60;96.70;;;;;;5099884;28;20087;-81
2021/10/05 11:05:29;;;;;;;4.57;0.88;;;22.80;96.70;;;;;;5086790;28;20163;-82
2021/10/05 11:07:59;;;;;;;4.18;0.65;;;23.10;96.70;;;;;;5094890;28;20043;-81
2021/10/05 11:10:29;;;;;;;5.45;0.70;;;23.00;96.70;;;;;;5112380;28;20073;-80
2021/10/05 11:13:00;;;;;;;7.18;1.10;;;23.10;96.70;;;;;;5087572;28;20142;-82
2021/10/05 11:15:34;;;;;;;7.13;0.98;;;23.30;96.70;;;;;;5098311;28;20135;-83
2021/10/05 11:18:08;;;;;;;5.60;1.13;;;23.40;96.70;;;;;;5093212;28;20107;-82
2021/10/05 11:20:42;;;;;;;5.55;1.20;;;23.60;96.70;;;;;;5092112;28;20070;-82
2021/10/05 11:23:11;;;;;;;4.72;1.00;;;23.50;96.70;;;;;;5090057;28;20472;-82
2021/10/05 11:25:45;;;;;;;4.25;0.80;;;23.70;96.70;;;;;;5084554;27;20396;-82
2021/10/05 11:28:15;;;;;;;6.70;1.05;;;23.60;96.70;;;;;;5114119;27;20047;-82
2021/10/05 11:30:49;;;;;;;5.30;0.90;;;23.40;96.70;;;;;;5094305;28;20044;-82
2021/10/05 11:33:20;;;;;;;6.68;0.90;;;23.20;96.70;;;;;;5097211;27;20080;-81
2021/10/05 11:35:50;;;;;;;4.43;1.00;;;23.00;96.70;;;;;;5095067;27;20072;-82
2021/10/05 11:38:18;;;;;;;9.20;1.10;;;23.20;96.70;;;;;;5082548;27;20139;-80
2021/10/05 11:40:55;;;;;;;7.68;1.10;;;23.30;96.70;;;;;;5116939;27;20393;-82
2021/10/05 11:43:35;;;;;;;7.15;1.25;;;23.20;96.70;;;;;;5099661;27;20047;-81
2021/10/05 11:46:11;;;;;;;6.78;1.20;;;23.10;96.70;;;;;;5097158;27;20071;-82
2021/10/05 11:48:42;;;;;;;4.32;1.00;;;22.90;96.70;;;;;;5095603;27;20043;-82
2021/10/05 11:51:13;;;;;;;4.35;0.95;;;22.90;96.70;;;;;;5092758;28;20043;-82
2021/10/05 11:53:43;;;;;;;4.32;0.80;;;22.80;96.70;;;;;;5103814;27;20047;-84
2021/10/05 11:56:14;;;;;;;5.20;1.10;;;22.60;96.70;;;;;;5092900;27;20073;-82
2021/10/05 11:58:47;;;;;;;4.88;1.25;;;22.40;96.70;;;;;;5099891;28;20131;-81
2021/10/05 12:01:17;;;;;;;3.90;0.93;;;22.40;96.70;;;;;;5114861;27;20128;-82
2021/10/05 12:03:47;;;;;;;5.38;1.13;;;22.40;96.70;;;;;;5086021;28;20093;-82
2021/10/05 12:06:28;;;;;;;4.57;0.57;;;22.40;96.70;;;;;;5108778;27;20051;-82
2021/10/05 12:08:57;;;;;;;3.55;0.70;;;22.40;96.70;;;;;;5095783;28;20387;-82
2021/10/05 12:11:40;;;;;;;5.95;1.25;;;22.30;96.70;;;;;;5116852;27;20068;-82
2021/10/05 12:14:10;;;;;;;5.55;1.02;;;22.30;96.70;;;;;;5104915;27;20063;-82
2021/10/05 12:16:40;;;;;;;3.60;0.77;;;22.30;96.70;;;;;;5092883;27;20125;-82
2021/10/05 12:19:09;;;;;;;4.43;0.88;;;22.30;96.70;;;;;;5094485;27;20052;-82
2021/10/05 12:21:38;;;;;;;5.38;0.80;;;22.30;96.70;;;;;;5112667;27;20076;-81
2021/10/05 12:24:07;;;;;;;5.38;0.90;;;22.30;96.70;;;;;;5090778;27;20036;-81
2021/10/05 12:26:46;;;;;;;4.38;0.85;;;22.30;96.70;;;;;;5096348;28;20040;-82
2021/10/05 12:29:29;;;;;;;5.03;1.35;;;22.60;96.70;;;;;;5092023;27;20055;-82
2021/10/05 12:31:59;;;;;;;8.15;1.60;;;22.70;96.70;;;;;;5081858;27;20475;-82
2021/10/05 12:34:38;;;;;;;5.82;1.20;;;22.60;96.70;;;;;;5082283;27;20492;-81
2021/10/05 12:37:09;;;;;;;5.93;1.02;;;22.70;96.70;;;;;;5091117;27;20053;-82
2021/10/05 12:40:02;;;;;;;5.43;1.20;;;22.70;96.70;;;;;;5080561;27;20050;-82
2021/10/05 12:42:42;;;;;;;4.78;1.00;;;22.70;96.70;;;;;;5095510;27;20066;-83
2021/10/05 12:45:19;;;;;;;5.57;1.60;;;22.80;96.70;;;;;;5096237;27;20122;-82
2021/10/05 12:47:56;;;;;;;5.63;1.10;;;23.00;96.70;;;;;;5116885;27;20095;-82
2021/10/05 12:50:29;;;;;;;5.80;1.27;;;23.50;96.70;;;;;;5094924;27;20051;-82
2021/10/05 12:53:01;;;;;;;6.38;1.40;;;23.60;96.70;;;;;;5092959;28;20054;-82
2021/10/05 12:55:31;;;;;;;3.80;0.93;;;23.70;96.70;;;;;;5108408;27;20031;-83
2021/10/05 12:58:01;;;;;;;4.93;1.08;;;23.60;96.70;;;;;;5117909;27;20100;-82
2021/10/05 13:00:32;;;;;;;8.20;1.63;;;23.40;96.70;;;;;;5096367;27;20039;-83
2021/10/05 13:03:01;;;;;;;4.60;1.05;;;23.70;96.70;;;;;;5088800;27;20043;-83
2021/10/05 13:05:30;;;;;;;4.70;1.27;;;23.80;96.70;;;;;;5093225;28;20386;-82